sensor_id;sensor_type;location;lat;lon;timestamp;P1;durP1;ratioP1;P2;durP2;ratioP2
78838;SDS011;68189;47.190;27.558;2023-02-28T00:01:32;2.10;;;1.20;;
78838;SDS011;68189;47.190;27.558;2023-02-28T00:04:03;1.30;;;1.20;;
78838;SDS011;68189;47.190;27.558;2023-02-28T00:06:36;2.20;;;1.30;;
78838;SDS011;68189;47.190;27.558;2023-02-28T00:09:06;2.10;;;1.30;;
78838;SDS011;68189;47.190;27.558;2023-02-28T00:11:37;2.70;;;1.00;;
78838;SDS011;68189;47.190;27.558;2023-02-28T00:14:07;1.30;;;1.10;;
78838;SDS011;68189;47.190;27.558;2023-02-28T00:16:37;1.70;;;1.30;;
78838;SDS011;68189;47.190;27.558;2023-02-28T00:19:07;1.60;;;1.30;;
78838;SDS011;68189;47.190;27.558;2023-02-28T00:21:40;1.60;;;1.20;;
78838;SDS011;68189;47.190;27.558;2023-02-28T00:24:10;2.00;;;1.70;;
78838;SDS011;68189;47.190;27.558;2023-02-28T00:26:40;1.50;;;1.40;;
78838;SDS011;68189;47.190;27.558;2023-02-28T00:29:10;1.30;;;1.00;;
78838;SDS011;68189;47.190;27.558;2023-02-28T00:31:41;1.60;;;1.40;;
78838;SDS011;68189;47.190;27.558;2023-02-28T00:34:11;1.40;;;1.10;;
78838;SDS011;68189;47.190;27.558;2023-02-28T00:36:41;1.40;;;1.20;;
78838;SDS011;68189;47.190;27.558;2023-02-28T00:39:13;1.50;;;1.20;;
78838;SDS011;68189;47.190;27.558;2023-02-28T00:41:43;1.50;;;1.20;;
78838;SDS011;68189;47.190;27.558;2023-02-28T00:44:13;1.50;;;1.40;;
78838;SDS011;68189;47.190;27.558;2023-02-28T00:46:44;1.70;;;1.20;;
78838;SDS011;68189;47.190;27.558;2023-02-28T00:49:14;2.00;;;1.50;;
78838;SDS011;68189;47.190;27.558;2023-02-28T00:51:45;2.10;;;1.30;;
78838;SDS011;68189;47.190;27.558;2023-02-28T00:54:15;1.40;;;1.20;;
78838;SDS011;68189;47.190;27.558;2023-02-28T00:56:46;1.60;;;1.00;;
78838;SDS011;68189;47.190;27.558;2023-02-28T00:59:17;1.30;;;1.20;;
78838;SDS011;68189;47.190;27.558;2023-02-28T01:01:48;1.40;;;1.20;;
78838;SDS011;68189;47.190;27.558;2023-02-28T01:04:18;1.50;;;1.10;;
78838;SDS011;68189;47.190;27.558;2023-02-28T01:06:49;1.50;;;1.30;;
78838;SDS011;68189;47.190;27.558;2023-02-28T01:09:19;2.10;;;1.20;;
78838;SDS011;68189;47.190;27.558;2023-02-28T01:11:49;1.70;;;1.10;;
78838;SDS011;68189;47.190;27.558;2023-02-28T01:14:20;1.20;;;1.10;;
78838;SDS011;68189;47.190;27.558;2023-02-28T01:16:50;1.60;;;1.00;;
78838;SDS011;68189;47.190;27.558;2023-02-28T01:19:20;2.10;;;1.30;;
78838;SDS011;68189;47.190;27.558;2023-02-28T01:21:51;1.50;;;1.10;;
78838;SDS011;68189;47.190;27.558;2023-02-28T01:24:21;2.30;;;1.90;;
78838;SDS011;68189;47.190;27.558;2023-02-28T01:26:52;1.70;;;1.30;;
78838;SDS011;68189;47.190;27.558;2023-02-28T01:29:22;1.80;;;1.30;;
78838;SDS011;68189;47.190;27.558;2023-02-28T01:31:52;3.60;;;1.60;;
78838;SDS011;68189;47.190;27.558;2023-02-28T01:34:24;2.60;;;1.50;;
78838;SDS011;68189;47.190;27.558;2023-02-28T01:36:54;2.40;;;1.90;;
78838;SDS011;68189;47.190;27.558;2023-02-28T01:39:25;3.70;;;1.50;;
78838;SDS011;68189;47.190;27.558;2023-02-28T01:41:56;1.90;;;1.50;;
78838;SDS011;68189;47.190;27.558;2023-02-28T01:47:43;2.20;;;1.20;;
78838;SDS011;68189;47.190;27.558;2023-02-28T01:50:15;1.90;;;1.60;;
78838;SDS011;68189;47.190;27.558;2023-02-28T01:52:48;1.90;;;1.40;;
78838;SDS011;68189;47.190;27.558;2023-02-28T01:55:19;2.20;;;1.40;;
78838;SDS011;68189;47.190;27.558;2023-02-28T01:57:56;1.90;;;1.40;;
78838;SDS011;68189;47.190;27.558;2023-02-28T02:00:29;2.40;;;1.60;;
78838;SDS011;68189;47.190;27.558;2023-02-28T02:03:01;2.00;;;1.40;;
78838;SDS011;68189;47.190;27.558;2023-02-28T02:05:37;2.40;;;1.50;;
78838;SDS011;68189;47.190;27.558;2023-02-28T02:08:10;2.20;;;1.80;;
78838;SDS011;68189;47.190;27.558;2023-02-28T02:10:44;2.00;;;1.60;;
78838;SDS011;68189;47.190;27.558;2023-02-28T02:13:29;2.10;;;1.70;;
78838;SDS011;68189;47.190;27.558;2023-02-28T02:16:20;2.00;;;1.50;;
78838;SDS011;68189;47.190;27.558;2023-02-28T02:19:00;2.00;;;1.60;;
78838;SDS011;68189;47.190;27.558;2023-02-28T02:21:58;2.20;;;1.70;;
78838;SDS011;68189;47.190;27.558;2023-02-28T02:31:16;2.00;;;1.80;;
78838;SDS011;68189;47.190;27.558;2023-02-28T02:37:23;2.10;;;1.50;;
78838;SDS011;68189;47.190;27.558;2023-02-28T02:40:02;3.50;;;1.50;;
78838;SDS011;68189;47.190;27.558;2023-02-28T02:42:39;1.90;;;1.60;;
78838;SDS011;68189;47.190;27.558;2023-02-28T02:45:18;1.90;;;1.70;;
78838;SDS011;68189;47.190;27.558;2023-02-28T02:47:54;1.90;;;1.40;;
78838;SDS011;68189;47.190;27.558;2023-02-28T02:50:29;1.90;;;1.40;;
78838;SDS011;68189;47.190;27.558;2023-02-28T02:53:03;2.90;;;1.70;;
78838;SDS011;68189;47.190;27.558;2023-02-28T02:55:37;2.20;;;1.60;;
78838;SDS011;68189;47.190;27.558;2023-02-28T02:58:13;2.40;;;1.60;;
78838;SDS011;68189;47.190;27.558;2023-02-28T03:00:47;3.30;;;1.40;;
78838;SDS011;68189;47.190;27.558;2023-02-28T03:03:21;2.10;;;1.70;;
78838;SDS011;68189;47.190;27.558;2023-02-28T03:05:57;1.90;;;1.40;;
78838;SDS011;68189;47.190;27.558;2023-02-28T03:08:29;1.90;;;1.30;;
78838;SDS011;68189;47.190;27.558;2023-02-28T03:11:02;2.10;;;1.60;;
78838;SDS011;68189;47.190;27.558;2023-02-28T03:13:45;1.90;;;1.50;;
78838;SDS011;68189;47.190;27.558;2023-02-28T03:16:36;2.20;;;1.90;;
78838;SDS011;68189;47.190;27.558;2023-02-28T03:19:29;1.70;;;1.40;;
78838;SDS011;68189;47.190;27.558;2023-02-28T03:22:16;2.30;;;1.60;;
78838;SDS011;68189;47.190;27.558;2023-02-28T03:25:03;2.20;;;1.80;;
78838;SDS011;68189;47.190;27.558;2023-02-28T03:27:38;2.10;;;1.40;;
78838;SDS011;68189;47.190;27.558;2023-02-28T03:30:15;1.60;;;1.40;;
78838;SDS011;68189;47.190;27.558;2023-02-28T03:32:53;2.10;;;1.80;;
78838;SDS011;68189;47.190;27.558;2023-02-28T03:35:29;2.30;;;1.70;;
78838;SDS011;68189;47.190;27.558;2023-02-28T03:38:05;2.20;;;1.60;;
78838;SDS011;68189;47.190;27.558;2023-02-28T03:40:41;3.40;;;1.80;;
78838;SDS011;68189;47.190;27.558;2023-02-28T03:43:17;1.90;;;1.70;;
78838;SDS011;68189;47.190;27.558;2023-02-28T03:45:51;1.90;;;1.60;;
78838;SDS011;68189;47.190;27.558;2023-02-28T03:48:25;3.50;;;1.60;;
78838;SDS011;68189;47.190;27.558;2023-02-28T03:51:04;1.60;;;1.40;;
78838;SDS011;68189;47.190;27.558;2023-02-28T03:53:40;2.30;;;1.90;;
78838;SDS011;68189;47.190;27.558;2023-02-28T03:56:14;2.30;;;1.60;;
78838;SDS011;68189;47.190;27.558;2023-02-28T03:58:49;2.20;;;1.80;;
78838;SDS011;68189;47.190;27.558;2023-02-28T04:01:25;1.80;;;1.60;;
78838;SDS011;68189;47.190;27.558;2023-02-28T04:04:01;1.40;;;1.20;;
78838;SDS011;68189;47.190;27.558;2023-02-28T04:06:32;1.90;;;1.60;;
78838;SDS011;68189;47.190;27.558;2023-02-28T04:09:04;1.80;;;1.50;;
78838;SDS011;68189;47.190;27.558;2023-02-28T04:11:37;2.50;;;2.20;;
78838;SDS011;68189;47.190;27.558;2023-02-28T04:14:10;2.10;;;1.90;;
78838;SDS011;68189;47.190;27.558;2023-02-28T04:16:41;2.10;;;1.90;;
78838;SDS011;68189;47.190;27.558;2023-02-28T04:19:12;2.50;;;1.80;;
78838;SDS011;68189;47.190;27.558;2023-02-28T04:21:43;2.00;;;1.80;;
78838;SDS011;68189;47.190;27.558;2023-02-28T04:24:16;2.10;;;1.70;;
78838;SDS011;68189;47.190;27.558;2023-02-28T04:26:48;1.90;;;1.70;;
78838;SDS011;68189;47.190;27.558;2023-02-28T04:29:20;2.10;;;1.90;;
78838;SDS011;68189;47.190;27.558;2023-02-28T04:31:51;2.70;;;1.60;;
78838;SDS011;68189;47.190;27.558;2023-02-28T04:34:24;2.10;;;1.80;;
78838;SDS011;68189;47.190;27.558;2023-02-28T04:36:56;2.10;;;1.60;;
78838;SDS011;68189;47.190;27.558;2023-02-28T04:39:27;2.30;;;1.70;;
78838;SDS011;68189;47.190;27.558;2023-02-28T04:42:03;1.90;;;1.40;;
78838;SDS011;68189;47.190;27.558;2023-02-28T04:44:33;2.40;;;1.80;;
78838;SDS011;68189;47.190;27.558;2023-02-28T04:47:04;2.00;;;1.60;;
78838;SDS011;68189;47.190;27.558;2023-02-28T04:49:34;2.70;;;1.70;;
78838;SDS011;68189;47.190;27.558;2023-02-28T04:52:05;1.90;;;1.70;;
78838;SDS011;68189;47.190;27.558;2023-02-28T04:54:37;1.90;;;1.60;;
78838;SDS011;68189;47.190;27.558;2023-02-28T04:57:08;2.50;;;1.80;;
78838;SDS011;68189;47.190;27.558;2023-02-28T04:59:38;2.80;;;1.90;;
78838;SDS011;68189;47.190;27.558;2023-02-28T05:02:09;2.30;;;1.80;;
78838;SDS011;68189;47.190;27.558;2023-02-28T05:04:39;3.30;;;1.80;;
78838;SDS011;68189;47.190;27.558;2023-02-28T05:07:10;2.00;;;1.60;;
78838;SDS011;68189;47.190;27.558;2023-02-28T05:09:40;2.40;;;1.80;;
78838;SDS011;68189;47.190;27.558;2023-02-28T05:12:10;2.30;;;1.90;;
78838;SDS011;68189;47.190;27.558;2023-02-28T05:14:41;2.40;;;2.00;;
78838;SDS011;68189;47.190;27.558;2023-02-28T05:17:11;2.70;;;1.90;;
78838;SDS011;68189;47.190;27.558;2023-02-28T05:19:41;1.90;;;1.50;;
78838;SDS011;68189;47.190;27.558;2023-02-28T05:22:14;2.30;;;1.80;;
78838;SDS011;68189;47.190;27.558;2023-02-28T05:24:45;1.80;;;1.60;;
78838;SDS011;68189;47.190;27.558;2023-02-28T05:27:16;2.10;;;1.80;;
78838;SDS011;68189;47.190;27.558;2023-02-28T05:29:46;2.40;;;1.50;;
78838;SDS011;68189;47.190;27.558;2023-02-28T05:32:16;2.30;;;1.80;;
78838;SDS011;68189;47.190;27.558;2023-02-28T05:34:47;2.10;;;1.70;;
78838;SDS011;68189;47.190;27.558;2023-02-28T05:37:17;2.00;;;1.70;;
78838;SDS011;68189;47.190;27.558;2023-02-28T05:39:47;2.10;;;1.90;;
78838;SDS011;68189;47.190;27.558;2023-02-28T05:42:18;1.90;;;1.70;;
78838;SDS011;68189;47.190;27.558;2023-02-28T05:44:48;2.00;;;1.80;;
78838;SDS011;68189;47.190;27.558;2023-02-28T05:47:19;3.20;;;2.00;;
78838;SDS011;68189;47.190;27.558;2023-02-28T05:49:49;2.50;;;1.90;;
78838;SDS011;68189;47.190;27.558;2023-02-28T05:52:19;2.00;;;1.60;;
78838;SDS011;68189;47.190;27.558;2023-02-28T05:54:50;1.80;;;1.60;;
78838;SDS011;68189;47.190;27.558;2023-02-28T05:57:20;3.90;;;1.90;;
78838;SDS011;68189;47.190;27.558;2023-02-28T05:59:51;2.20;;;1.80;;
78838;SDS011;68189;47.190;27.558;2023-02-28T06:02:21;2.20;;;1.80;;
78838;SDS011;68189;47.190;27.558;2023-02-28T06:04:52;2.50;;;2.00;;
78838;SDS011;68189;47.190;27.558;2023-02-28T06:07:23;2.30;;;2.10;;
78838;SDS011;68189;47.190;27.558;2023-02-28T06:09:53;2.80;;;1.70;;
78838;SDS011;68189;47.190;27.558;2023-02-28T06:12:23;2.00;;;1.70;;
78838;SDS011;68189;47.190;27.558;2023-02-28T06:14:54;2.10;;;1.80;;
78838;SDS011;68189;47.190;27.558;2023-02-28T06:17:25;2.70;;;2.00;;
78838;SDS011;68189;47.190;27.558;2023-02-28T06:19:55;2.50;;;1.80;;
78838;SDS011;68189;47.190;27.558;2023-02-28T06:22:26;2.50;;;2.10;;
78838;SDS011;68189;47.190;27.558;2023-02-28T06:24:56;3.70;;;2.30;;
78838;SDS011;68189;47.190;27.558;2023-02-28T06:27:26;3.00;;;2.30;;
78838;SDS011;68189;47.190;27.558;2023-02-28T06:29:57;3.70;;;2.40;;
78838;SDS011;68189;47.190;27.558;2023-02-28T06:32:27;3.70;;;3.00;;
78838;SDS011;68189;47.190;27.558;2023-02-28T06:34:58;3.90;;;3.50;;
78838;SDS011;68189;47.190;27.558;2023-02-28T06:37:28;5.80;;;5.40;;
78838;SDS011;68189;47.190;27.558;2023-02-28T06:39:59;5.60;;;5.20;;
78838;SDS011;68189;47.190;27.558;2023-02-28T06:42:29;4.90;;;4.40;;
78838;SDS011;68189;47.190;27.558;2023-02-28T06:45:00;5.00;;;3.40;;
78838;SDS011;68189;47.190;27.558;2023-02-28T06:47:36;3.20;;;2.80;;
78838;SDS011;68189;47.190;27.558;2023-02-28T06:50:08;3.20;;;2.90;;
78838;SDS011;68189;47.190;27.558;2023-02-28T06:52:40;4.00;;;3.30;;
78838;SDS011;68189;47.190;27.558;2023-02-28T06:55:11;5.50;;;3.10;;
78838;SDS011;68189;47.190;27.558;2023-02-28T06:57:42;4.00;;;3.40;;
78838;SDS011;68189;47.190;27.558;2023-02-28T07:00:13;4.30;;;3.20;;
78838;SDS011;68189;47.190;27.558;2023-02-28T07:02:45;4.30;;;2.60;;
78838;SDS011;68189;47.190;27.558;2023-02-28T07:05:16;3.30;;;2.60;;
78838;SDS011;68189;47.190;27.558;2023-02-28T07:07:47;4.30;;;2.80;;
78838;SDS011;68189;47.190;27.558;2023-02-28T07:10:19;3.00;;;2.70;;
78838;SDS011;68189;47.190;27.558;2023-02-28T07:12:50;5.20;;;3.20;;
78838;SDS011;68189;47.190;27.558;2023-02-28T07:15:20;4.20;;;2.70;;
78838;SDS011;68189;47.190;27.558;2023-02-28T07:17:50;6.80;;;3.20;;
78838;SDS011;68189;47.190;27.558;2023-02-28T07:20:21;3.70;;;3.00;;
78838;SDS011;68189;47.190;27.558;2023-02-28T07:22:52;4.30;;;3.40;;
78838;SDS011;68189;47.190;27.558;2023-02-28T07:25:23;4.30;;;3.20;;
78838;SDS011;68189;47.190;27.558;2023-02-28T07:27:55;4.30;;;3.20;;
78838;SDS011;68189;47.190;27.558;2023-02-28T07:30:27;4.30;;;3.30;;
78838;SDS011;68189;47.190;27.558;2023-02-28T07:32:57;4.20;;;2.90;;
78838;SDS011;68189;47.190;27.558;2023-02-28T07:35:28;3.60;;;2.80;;
78838;SDS011;68189;47.190;27.558;2023-02-28T07:37:59;3.30;;;3.00;;
78838;SDS011;68189;47.190;27.558;2023-02-28T07:40:30;4.80;;;2.60;;
78838;SDS011;68189;47.190;27.558;2023-02-28T07:43:01;4.50;;;2.70;;
78838;SDS011;68189;47.190;27.558;2023-02-28T07:45:32;3.90;;;2.90;;
78838;SDS011;68189;47.190;27.558;2023-02-28T07:48:03;2.80;;;2.30;;
78838;SDS011;68189;47.190;27.558;2023-02-28T07:50:34;4.90;;;3.10;;
78838;SDS011;68189;47.190;27.558;2023-02-28T07:53:04;2.70;;;2.30;;
78838;SDS011;68189;47.190;27.558;2023-02-28T07:55:35;3.50;;;2.90;;
78838;SDS011;68189;47.190;27.558;2023-02-28T07:58:05;4.90;;;3.20;;
78838;SDS011;68189;47.190;27.558;2023-02-28T08:00:36;3.80;;;2.60;;
78838;SDS011;68189;47.190;27.558;2023-02-28T08:03:07;3.50;;;2.60;;
78838;SDS011;68189;47.190;27.558;2023-02-28T08:05:39;3.60;;;3.00;;
78838;SDS011;68189;47.190;27.558;2023-02-28T08:08:10;3.30;;;2.40;;
78838;SDS011;68189;47.190;27.558;2023-02-28T08:10:40;5.60;;;3.00;;
78838;SDS011;68189;47.190;27.558;2023-02-28T08:13:11;3.80;;;2.80;;
78838;SDS011;68189;47.190;27.558;2023-02-28T08:15:42;4.30;;;2.60;;
78838;SDS011;68189;47.190;27.558;2023-02-28T08:18:14;2.70;;;2.50;;
78838;SDS011;68189;47.190;27.558;2023-02-28T08:20:45;3.20;;;2.60;;
78838;SDS011;68189;47.190;27.558;2023-02-28T08:23:15;3.50;;;2.60;;
78838;SDS011;68189;47.190;27.558;2023-02-28T08:25:52;4.10;;;2.40;;
78838;SDS011;68189;47.190;27.558;2023-02-28T08:28:23;2.90;;;2.40;;
78838;SDS011;68189;47.190;27.558;2023-02-28T08:30:54;3.50;;;2.40;;
78838;SDS011;68189;47.190;27.558;2023-02-28T08:33:25;3.20;;;2.60;;
78838;SDS011;68189;47.190;27.558;2023-02-28T08:35:57;3.20;;;2.40;;
78838;SDS011;68189;47.190;27.558;2023-02-28T08:38:28;3.20;;;2.70;;
78838;SDS011;68189;47.190;27.558;2023-02-28T08:40:59;3.70;;;2.60;;
78838;SDS011;68189;47.190;27.558;2023-02-28T08:43:33;4.10;;;2.70;;
78838;SDS011;68189;47.190;27.558;2023-02-28T08:46:03;3.50;;;2.40;;
78838;SDS011;68189;47.190;27.558;2023-02-28T08:48:35;3.30;;;2.50;;
78838;SDS011;68189;47.190;27.558;2023-02-28T08:51:07;2.80;;;2.50;;
78838;SDS011;68189;47.190;27.558;2023-02-28T08:56:09;3.80;;;2.40;;
78838;SDS011;68189;47.190;27.558;2023-02-28T08:58:41;3.60;;;2.50;;
78838;SDS011;68189;47.190;27.558;2023-02-28T09:01:13;3.60;;;2.40;;
78838;SDS011;68189;47.190;27.558;2023-02-28T09:03:45;3.50;;;2.40;;
78838;SDS011;68189;47.190;27.558;2023-02-28T09:06:17;3.20;;;2.50;;
78838;SDS011;68189;47.190;27.558;2023-02-28T09:08:50;2.80;;;2.50;;
78838;SDS011;68189;47.190;27.558;2023-02-28T09:11:22;3.70;;;2.70;;
78838;SDS011;68189;47.190;27.558;2023-02-28T09:13:52;3.50;;;2.30;;
78838;SDS011;68189;47.190;27.558;2023-02-28T09:16:23;2.90;;;2.50;;
78838;SDS011;68189;47.190;27.558;2023-02-28T09:18:54;3.50;;;2.50;;
78838;SDS011;68189;47.190;27.558;2023-02-28T09:21:25;2.90;;;2.40;;
78838;SDS011;68189;47.190;27.558;2023-02-28T09:23:56;4.30;;;2.40;;
78838;SDS011;68189;47.190;27.558;2023-02-28T09:26:26;3.60;;;2.80;;
78838;SDS011;68189;47.190;27.558;2023-02-28T09:28:57;3.30;;;2.60;;
78838;SDS011;68189;47.190;27.558;2023-02-28T09:31:30;3.10;;;2.40;;
78838;SDS011;68189;47.190;27.558;2023-02-28T09:34:00;3.40;;;2.70;;
78838;SDS011;68189;47.190;27.558;2023-02-28T09:36:32;5.00;;;2.50;;
78838;SDS011;68189;47.190;27.558;2023-02-28T09:39:05;3.10;;;2.50;;
78838;SDS011;68189;47.190;27.558;2023-02-28T09:41:38;3.00;;;2.70;;
78838;SDS011;68189;47.190;27.558;2023-02-28T09:44:19;4.10;;;2.80;;
78838;SDS011;68189;47.190;27.558;2023-02-28T09:46:55;4.40;;;2.70;;
78838;SDS011;68189;47.190;27.558;2023-02-28T09:52:02;2.70;;;2.40;;
78838;SDS011;68189;47.190;27.558;2023-02-28T09:54:36;3.70;;;2.90;;
78838;SDS011;68189;47.190;27.558;2023-02-28T09:57:08;3.60;;;2.70;;
78838;SDS011;68189;47.190;27.558;2023-02-28T09:59:51;2.90;;;2.50;;
78838;SDS011;68189;47.190;27.558;2023-02-28T10:02:45;4.00;;;3.00;;
78838;SDS011;68189;47.190;27.558;2023-02-28T10:05:30;5.10;;;3.60;;
78838;SDS011;68189;47.190;27.558;2023-02-28T10:08:11;3.60;;;2.20;;
78838;SDS011;68189;47.190;27.558;2023-02-28T10:10:45;3.60;;;2.20;;
78838;SDS011;68189;47.190;27.558;2023-02-28T10:13:23;3.00;;;2.40;;
78838;SDS011;68189;47.190;27.558;2023-02-28T10:15:56;2.70;;;2.40;;
78838;SDS011;68189;47.190;27.558;2023-02-28T10:18:31;3.40;;;2.40;;
78838;SDS011;68189;47.190;27.558;2023-02-28T10:21:11;3.30;;;2.80;;
78838;SDS011;68189;47.190;27.558;2023-02-28T10:23:48;5.70;;;2.60;;
78838;SDS011;68189;47.190;27.558;2023-02-28T10:26:21;4.60;;;2.70;;
78838;SDS011;68189;47.190;27.558;2023-02-28T10:28:54;4.10;;;2.70;;
78838;SDS011;68189;47.190;27.558;2023-02-28T10:31:25;4.80;;;3.20;;
78838;SDS011;68189;47.190;27.558;2023-02-28T10:33:56;4.60;;;2.70;;
78838;SDS011;68189;47.190;27.558;2023-02-28T10:36:26;4.20;;;2.90;;
78838;SDS011;68189;47.190;27.558;2023-02-28T10:38:57;3.90;;;2.90;;
78838;SDS011;68189;47.190;27.558;2023-02-28T10:41:29;5.10;;;2.80;;
78838;SDS011;68189;47.190;27.558;2023-02-28T10:44:17;3.30;;;2.50;;
78838;SDS011;68189;47.190;27.558;2023-02-28T10:46:51;3.00;;;2.30;;
78838;SDS011;68189;47.190;27.558;2023-02-28T10:49:22;2.90;;;2.40;;
78838;SDS011;68189;47.190;27.558;2023-02-28T10:51:55;4.90;;;2.60;;
78838;SDS011;68189;47.190;27.558;2023-02-28T10:54:30;5.50;;;3.00;;
78838;SDS011;68189;47.190;27.558;2023-02-28T10:57:13;4.40;;;2.70;;
78838;SDS011;68189;47.190;27.558;2023-02-28T10:59:47;3.10;;;2.40;;
78838;SDS011;68189;47.190;27.558;2023-02-28T11:02:32;3.10;;;2.50;;
78838;SDS011;68189;47.190;27.558;2023-02-28T11:08:05;2.90;;;2.40;;
78838;SDS011;68189;47.190;27.558;2023-02-28T11:10:43;3.10;;;2.40;;
78838;SDS011;68189;47.190;27.558;2023-02-28T11:13:20;5.80;;;2.80;;
78838;SDS011;68189;47.190;27.558;2023-02-28T11:15:55;3.20;;;2.20;;
78838;SDS011;68189;47.190;27.558;2023-02-28T11:18:29;3.50;;;2.20;;
78838;SDS011;68189;47.190;27.558;2023-02-28T11:21:05;2.40;;;2.10;;
78838;SDS011;68189;47.190;27.558;2023-02-28T11:23:39;2.70;;;2.10;;
78838;SDS011;68189;47.190;27.558;2023-02-28T11:26:34;2.40;;;1.90;;
78838;SDS011;68189;47.190;27.558;2023-02-28T11:29:18;2.70;;;1.70;;
78838;SDS011;68189;47.190;27.558;2023-02-28T11:32:09;3.00;;;2.30;;
78838;SDS011;68189;47.190;27.558;2023-02-28T11:34:45;4.90;;;3.00;;
78838;SDS011;68189;47.190;27.558;2023-02-28T11:37:30;6.10;;;2.70;;
78838;SDS011;68189;47.190;27.558;2023-02-28T11:40:01;4.30;;;2.70;;
78838;SDS011;68189;47.190;27.558;2023-02-28T11:42:38;4.20;;;3.50;;
78838;SDS011;68189;47.190;27.558;2023-02-28T11:45:25;4.30;;;3.20;;
78838;SDS011;68189;47.190;27.558;2023-02-28T11:48:07;3.20;;;2.80;;
78838;SDS011;68189;47.190;27.558;2023-02-28T11:50:49;5.00;;;3.50;;
78838;SDS011;68189;47.190;27.558;2023-02-28T11:53:56;5.00;;;3.40;;
78838;SDS011;68189;47.190;27.558;2023-02-28T11:56:38;4.00;;;3.30;;
78838;SDS011;68189;47.190;27.558;2023-02-28T11:59:18;4.10;;;3.30;;
78838;SDS011;68189;47.190;27.558;2023-02-28T12:05:20;3.60;;;3.20;;
78838;SDS011;68189;47.190;27.558;2023-02-28T12:08:02;4.40;;;3.60;;
78838;SDS011;68189;47.190;27.558;2023-02-28T12:13:29;3.30;;;2.20;;
78838;SDS011;68189;47.190;27.558;2023-02-28T12:16:20;3.00;;;2.40;;
78838;SDS011;68189;47.190;27.558;2023-02-28T12:19:06;3.70;;;2.20;;
78838;SDS011;68189;47.190;27.558;2023-02-28T12:25:09;2.60;;;1.80;;
78838;SDS011;68189;47.190;27.558;2023-02-28T12:27:57;2.20;;;1.70;;
78838;SDS011;68189;47.190;27.558;2023-02-28T12:30:29;2.90;;;2.40;;
78838;SDS011;68189;47.190;27.558;2023-02-28T12:33:03;2.40;;;1.60;;
78838;SDS011;68189;47.190;27.558;2023-02-28T12:35:37;2.90;;;1.80;;
78838;SDS011;68189;47.190;27.558;2023-02-28T12:38:16;2.80;;;1.80;;
78838;SDS011;68189;47.190;27.558;2023-02-28T12:40:50;2.40;;;1.80;;
78838;SDS011;68189;47.190;27.558;2023-02-28T12:43:25;2.10;;;1.60;;
78838;SDS011;68189;47.190;27.558;2023-02-28T12:46:02;1.90;;;1.60;;
78838;SDS011;68189;47.190;27.558;2023-02-28T12:48:40;2.50;;;1.80;;
78838;SDS011;68189;47.190;27.558;2023-02-28T12:51:15;2.60;;;1.60;;
78838;SDS011;68189;47.190;27.558;2023-02-28T12:53:52;2.30;;;1.70;;
78838;SDS011;68189;47.190;27.558;2023-02-28T12:56:38;2.00;;;1.50;;
78838;SDS011;68189;47.190;27.558;2023-02-28T12:59:20;3.10;;;1.60;;
78838;SDS011;68189;47.190;27.558;2023-02-28T13:10:50;2.50;;;1.40;;
78838;SDS011;68189;47.190;27.558;2023-02-28T13:13:23;2.00;;;1.40;;
78838;SDS011;68189;47.190;27.558;2023-02-28T13:16:04;2.70;;;1.60;;
78838;SDS011;68189;47.190;27.558;2023-02-28T13:18:37;4.00;;;1.70;;
78838;SDS011;68189;47.190;27.558;2023-02-28T13:21:23;1.40;;;1.20;;
78838;SDS011;68189;47.190;27.558;2023-02-28T13:24:02;1.70;;;1.50;;
78838;SDS011;68189;47.190;27.558;2023-02-28T13:29:52;2.50;;;1.30;;
78838;SDS011;68189;47.190;27.558;2023-02-28T13:32:33;1.90;;;1.20;;
78838;SDS011;68189;47.190;27.558;2023-02-28T13:41:42;1.80;;;1.30;;
78838;SDS011;68189;47.190;27.558;2023-02-28T13:44:18;1.70;;;1.40;;
78838;SDS011;68189;47.190;27.558;2023-02-28T13:49:53;2.60;;;1.50;;
78838;SDS011;68189;47.190;27.558;2023-02-28T13:52:47;2.00;;;1.00;;
78838;SDS011;68189;47.190;27.558;2023-02-28T13:55:29;2.20;;;1.20;;
78838;SDS011;68189;47.190;27.558;2023-02-28T13:58:20;1.50;;;1.30;;
78838;SDS011;68189;47.190;27.558;2023-02-28T14:01:12;2.10;;;1.40;;
78838;SDS011;68189;47.190;27.558;2023-02-28T14:03:57;1.60;;;1.30;;
78838;SDS011;68189;47.190;27.558;2023-02-28T14:06:49;1.30;;;1.20;;
78838;SDS011;68189;47.190;27.558;2023-02-28T14:09:23;1.60;;;1.20;;
78838;SDS011;68189;47.190;27.558;2023-02-28T14:11:57;1.90;;;1.20;;
78838;SDS011;68189;47.190;27.558;2023-02-28T14:15:23;2.50;;;1.70;;
78838;SDS011;68189;47.190;27.558;2023-02-28T14:18:00;2.20;;;1.30;;
78838;SDS011;68189;47.190;27.558;2023-02-28T14:20:34;1.70;;;1.30;;
78838;SDS011;68189;47.190;27.558;2023-02-28T14:23:06;1.40;;;1.20;;
78838;SDS011;68189;47.190;27.558;2023-02-28T14:25:47;2.10;;;1.50;;
78838;SDS011;68189;47.190;27.558;2023-02-28T14:28:24;1.60;;;1.20;;
78838;SDS011;68189;47.190;27.558;2023-02-28T14:31:09;2.10;;;1.30;;
78838;SDS011;68189;47.190;27.558;2023-02-28T14:33:53;1.80;;;1.20;;
78838;SDS011;68189;47.190;27.558;2023-02-28T14:36:35;2.40;;;1.30;;
78838;SDS011;68189;47.190;27.558;2023-02-28T14:39:10;1.90;;;1.30;;
78838;SDS011;68189;47.190;27.558;2023-02-28T14:41:46;1.80;;;1.20;;
78838;SDS011;68189;47.190;27.558;2023-02-28T14:44:17;2.20;;;1.30;;
78838;SDS011;68189;47.190;27.558;2023-02-28T14:46:49;1.40;;;1.20;;
78838;SDS011;68189;47.190;27.558;2023-02-28T14:49:23;2.30;;;1.20;;
78838;SDS011;68189;47.190;27.558;2023-02-28T14:52:07;1.90;;;1.50;;
78838;SDS011;68189;47.190;27.558;2023-02-28T14:54:46;1.60;;;1.20;;
78838;SDS011;68189;47.190;27.558;2023-02-28T14:57:25;1.90;;;1.30;;
78838;SDS011;68189;47.190;27.558;2023-02-28T15:00:01;1.50;;;1.20;;
78838;SDS011;68189;47.190;27.558;2023-02-28T15:02:41;2.20;;;1.20;;
78838;SDS011;68189;47.190;27.558;2023-02-28T15:05:19;1.50;;;1.10;;
78838;SDS011;68189;47.190;27.558;2023-02-28T15:08:03;1.70;;;1.10;;
78838;SDS011;68189;47.190;27.558;2023-02-28T15:10:38;1.60;;;1.30;;
78838;SDS011;68189;47.190;27.558;2023-02-28T15:13:12;1.70;;;1.40;;
78838;SDS011;68189;47.190;27.558;2023-02-28T15:15:44;2.30;;;1.20;;
78838;SDS011;68189;47.190;27.558;2023-02-28T15:18:27;1.60;;;1.20;;
78838;SDS011;68189;47.190;27.558;2023-02-28T15:21:11;1.20;;;1.00;;
78838;SDS011;68189;47.190;27.558;2023-02-28T15:23:44;1.50;;;1.00;;
78838;SDS011;68189;47.190;27.558;2023-02-28T15:26:19;1.80;;;1.30;;
78838;SDS011;68189;47.190;27.558;2023-02-28T15:28:59;2.00;;;1.10;;
78838;SDS011;68189;47.190;27.558;2023-02-28T15:31:34;1.60;;;1.20;;
78838;SDS011;68189;47.190;27.558;2023-02-28T15:34:15;1.50;;;1.40;;
78838;SDS011;68189;47.190;27.558;2023-02-28T15:36:49;1.60;;;1.20;;
78838;SDS011;68189;47.190;27.558;2023-02-28T15:39:21;1.50;;;1.10;;
78838;SDS011;68189;47.190;27.558;2023-02-28T15:41:55;3.50;;;1.30;;
78838;SDS011;68189;47.190;27.558;2023-02-28T15:44:40;1.50;;;1.00;;
78838;SDS011;68189;47.190;27.558;2023-02-28T15:47:16;2.00;;;1.20;;
78838;SDS011;68189;47.190;27.558;2023-02-28T15:49:49;2.70;;;1.30;;
78838;SDS011;68189;47.190;27.558;2023-02-28T15:52:22;2.20;;;1.00;;
78838;SDS011;68189;47.190;27.558;2023-02-28T15:54:59;1.40;;;1.20;;
78838;SDS011;68189;47.190;27.558;2023-02-28T15:57:40;1.50;;;1.10;;
78838;SDS011;68189;47.190;27.558;2023-02-28T16:00:14;1.50;;;1.10;;
78838;SDS011;68189;47.190;27.558;2023-02-28T16:02:48;1.50;;;1.00;;
78838;SDS011;68189;47.190;27.558;2023-02-28T16:05:25;1.90;;;1.10;;
78838;SDS011;68189;47.190;27.558;2023-02-28T16:07:59;1.30;;;1.00;;
78838;SDS011;68189;47.190;27.558;2023-02-28T16:10:30;1.70;;;1.30;;